Fox — 9HAE9 — position and weather

sailwx.info

Track history (hours):
 
Tides and Currents Weather Stations Pressure Air Temp Water Temp Dewpoint Dewpoint Depression Visibility Wind Speed Wind Dir Waves Ship Positions

Fox

Last reported at 2018-Feb-19 12:07 UTC. Time now 2018-Feb-23 07:01 UTC.
Position N 36°41' E 014°23'.

Length 120 m; draft 6.4 m.

Type: Cargo ship. MMSI: 256678000.

Date/timePositionNaut miles runAvg speedWind from/ knotsBaromVisibWave heightAir tempDewpointWater temp
2018-Feb-19 12:07N 36°41' E 014°23'111.3
2018-Feb-19 12:00N 36°41' E 014°22'611.4
2018-Feb-19 11:30N 36°43' E 014°15'611.2
2018-Feb-19 11:00N 36°46' E 014°09'611.0
2018-Feb-19 10:30N 36°48' E 014°02'511.1
2018-Feb-19 10:00N 36°50' E 013°56'611.3
2018-Feb-19 09:30N 36°52' E 013°50'24710.9
2018-Feb-18 10:54N 38°29' E 009°03'411.2
2018-Feb-18 10:30N 38°31' E 008°58'  
2018-Feb-14 04:14N 37°44' W 000°21'312.2
2018-Feb-14 04:00N 37°42' W 000°23'712.4
2018-Feb-14 03:28N 37°36' W 000°28'612.3
2018-Feb-14 03:00N 37°32' W 000°32'811.9
2018-Feb-14 02:22N 37°27' W 000°40'411.5
2018-Feb-14 02:00N 37°24' W 000°44'611.6
2018-Feb-14 01:30N 37°20' W 000°49'22911.6
2018-Feb-13 05:43N 35°59' W 005°16'313.4
2018-Feb-13 05:30N 35°59' W 005°19'714.8
2018-Feb-13 05:00N 35°57' W 005°28'  
Track history (hours):
 
Tides and Currents Weather Stations Pressure Air Temp Water Temp Dewpoint Dewpoint Depression Visibility Wind Speed Wind Dir Waves Ship Positions

Fox

Last reported at 2018-Feb-19 12:07 UTC. Time now 2018-Feb-23 07:01 UTC.
Position N 36°41' E 014°23'.

Length 120 m; draft 6.4 m.

Type: Cargo ship. MMSI: 256678000.

Date/timePositionNaut miles runAvg speedWind from/ knotsBaromVisibWave heightAir tempDewpointWater temp
2018-Feb-19 12:07N 36°41' E 014°23'111.3
2018-Feb-19 12:00N 36°41' E 014°22'611.4
2018-Feb-19 11:30N 36°43' E 014°15'611.2
2018-Feb-19 11:00N 36°46' E 014°09'611.0
2018-Feb-19 10:30N 36°48' E 014°02'511.1
2018-Feb-19 10:00N 36°50' E 013°56'611.3
2018-Feb-19 09:30N 36°52' E 013°50'24710.9
2018-Feb-18 10:54N 38°29' E 009°03'411.2
2018-Feb-18 10:30N 38°31' E 008°58'  
2018-Feb-14 04:14N 37°44' W 000°21'312.2
2018-Feb-14 04:00N 37°42' W 000°23'712.4
2018-Feb-14 03:28N 37°36' W 000°28'612.3
2018-Feb-14 03:00N 37°32' W 000°32'811.9
2018-Feb-14 02:22N 37°27' W 000°40'411.5
2018-Feb-14 02:00N 37°24' W 000°44'611.6
2018-Feb-14 01:30N 37°20' W 000°49'22911.6
2018-Feb-13 05:43N 35°59' W 005°16'313.4
2018-Feb-13 05:30N 35°59' W 005°19'714.8
2018-Feb-13 05:00N 35°57' W 005°28'  

Dump ship's entire track history